Time;durP1;ratioP1;P1;durP2;ratioP2;P2;SDS_P1;SDS_P2;PMS_P1;PMS_P2;Temp;Humidity;BMP_temperature;BMP_pressure;BME280_temperature;BME280_humidity;BME280_pressure;Samples;Min_cycle;Max_cycle;Signal;HPM_P1;HPM_P2
2023/08/20 00:00:53;;;;;;;19.20;15.85;;;;;;;29.06;52.07;101368.66;6076482;23;20007;-81
2023/08/20 00:03:22;;;;;;;22.98;16.15;;;;;;;28.80;52.49;101329.00;6103990;23;20134;-80
2023/08/20 00:05:49;;;;;;;22.85;16.10;;;;;;;28.91;52.48;101360.09;6091980;23;20359;-80
2023/08/20 00:08:16;;;;;;;26.05;17.95;;;;;;;28.98;52.53;101377.19;6113058;23;20041;-80
2023/08/20 00:10:43;;;;;;;24.13;15.70;;;;;;;29.04;52.63;101387.16;6099004;23;20652;-79
2023/08/20 00:13:10;;;;;;;25.17;17.83;;;;;;;28.98;52.85;101374.44;6118766;23;20144;-80
2023/08/20 00:15:37;;;;;;;25.83;17.73;;;;;;;28.99;53.27;101378.88;6086564;23;20017;-81
2023/08/20 00:18:06;;;;;;;24.92;17.58;;;;;;;28.95;52.73;101389.44;6085284;23;20323;-81
2023/08/20 00:20:37;;;;;;;20.33;16.52;;;;;;;28.73;53.02;101359.16;6102237;23;20024;-80
2023/08/20 00:23:04;;;;;;;20.73;16.35;;;;;;;28.72;53.21;101357.50;6112765;23;20068;-80
2023/08/20 00:25:35;;;;;;;23.75;17.30;;;;;;;28.96;53.31;101384.81;6079710;23;20176;-80
2023/08/20 00:28:02;;;;;;;23.10;17.60;;;;;;;28.87;53.13;101358.94;6072679;23;20025;-81
2023/08/20 00:30:29;;;;;;;33.00;17.67;;;;;;;28.95;53.46;101383.97;6102609;23;20023;-80
2023/08/20 00:32:56;;;;;;;29.00;17.98;;;;;;;28.96;53.25;101376.63;6101498;23;20367;-81
2023/08/20 00:35:25;;;;;;;25.70;18.33;;;;;;;28.92;53.42;101381.72;6096272;23;20025;-79
2023/08/20 00:37:52;;;;;;;26.20;18.25;;;;;;;28.04;53.29;101235.25;6095683;23;20506;-80
2023/08/20 00:40:18;;;;;;;25.00;17.75;;;;;;;28.61;53.13;101331.03;6121330;23;20112;-81
2023/08/20 00:42:45;;;;;;;23.25;17.83;;;;;;;28.94;52.95;101392.41;6145191;23;20056;-80
2023/08/20 00:45:12;;;;;;;23.88;17.80;;;;;;;28.88;53.38;101388.72;6083244;23;20021;-81
2023/08/20 00:47:40;;;;;;;30.50;17.30;;;;;;;28.84;53.34;101384.00;6091345;23;20056;-81
2023/08/20 00:50:07;;;;;;;22.45;17.27;;;;;;;28.75;53.66;101381.63;6123365;23;20018;-80
2023/08/20 00:52:38;;;;;;;28.15;17.35;;;;;;;28.69;53.86;101382.59;6124486;23;20014;-80
2023/08/20 00:55:10;;;;;;;28.35;17.40;;;;;;;28.73;54.23;101386.47;6113724;23;20045;-81
2023/08/20 00:57:38;;;;;;;27.38;17.15;;;;;;;28.29;53.92;101320.44;6100478;23;20097;-80
2023/08/20 01:00:10;;;;;;;20.67;16.60;;;;;;;28.62;54.09;101376.41;6118358;23;20485;-79
2023/08/20 01:02:40;;;;;;;22.70;17.42;;;;;;;28.14;54.33;101311.91;6124366;23;20334;-82
2023/08/20 01:05:11;;;;;;;20.95;17.58;;;;;;;28.45;54.26;101367.22;6121476;23;20021;-80
2023/08/20 01:07:53;;;;;;;21.27;16.80;;;;;;;28.26;54.46;101347.41;6141113;23;20572;-80
2023/08/20 01:10:43;;;;;;;27.08;16.92;;;;;;;28.44;54.51;101381.94;6123914;23;20028;-79
2023/08/20 01:13:11;;;;;;;20.10;17.25;;;;;;;28.51;54.49;101401.81;6130046;23;20017;-80
2023/08/20 01:15:38;;;;;;;20.50;16.90;;;;;;;28.01;54.80;101314.84;6139642;23;20021;-81
2023/08/20 01:18:09;;;;;;;25.27;17.23;;;;;;;28.29;54.93;101369.59;6125895;23;20075;-81
2023/08/20 01:20:45;;;;;;;25.75;16.80;;;;;;;28.45;54.71;101391.78;6118481;23;20025;-81
2023/08/20 01:23:32;;;;;;;25.23;16.58;;;;;;;28.47;54.58;101404.19;6122296;23;20338;-80
2023/08/20 01:26:20;;;;;;;22.10;17.13;;;;;;;28.52;54.23;101408.91;6082132;23;20024;-82
2023/08/20 01:28:47;;;;;;;23.17;15.82;;;;;;;27.72;54.17;101284.66;6115110;23;20021;-80
2023/08/20 01:31:15;;;;;;;23.80;16.73;;;;;;;28.49;54.08;101410.22;6090132;23;20025;-83
2023/08/20 01:33:45;;;;;;;22.55;16.38;;;;;;;28.45;54.39;101405.44;6111080;23;20083;-79
2023/08/20 01:36:17;;;;;;;33.42;17.67;;;;;;;28.43;54.58;101415.78;6138019;23;20229;-82
2023/08/20 01:38:44;;;;;;;19.15;16.85;;;;;;;27.92;54.48;101326.09;6103792;23;20021;-82
2023/08/20 01:41:10;;;;;;;18.08;16.08;;;;;;;28.23;54.48;101380.59;6128889;23;20326;-81
2023/08/20 01:43:40;;;;;;;21.90;17.23;;;;;;;28.41;54.78;101423.38;6122016;23;20048;-82
2023/08/20 01:46:12;;;;;;;22.63;16.20;;;;;;;27.90;54.82;101332.84;6107139;23;20113;-82
2023/08/20 01:48:41;;;;;;;25.15;17.42;;;;;;;27.70;54.89;101305.88;6121843;23;20453;-80
2023/08/20 01:51:09;;;;;;;24.98;17.98;;;;;;;27.98;54.95;101367.16;6081422;23;20051;-82
2023/08/20 01:53:37;;;;;;;22.27;17.08;;;;;;;28.28;55.21;101418.97;6109158;23;20392;-80
2023/08/20 01:56:04;;;;;;;23.60;16.60;;;;;;;28.10;55.42;101389.84;6113143;23;20021;-82
2023/08/20 01:58:40;;;;;;;20.17;16.88;;;;;;;27.98;55.40;101372.63;6107044;23;20024;-82
2023/08/20 02:01:07;;;;;;;;;;;;;;;28.12;55.89;101417.75;6108821;23;20255;-82
2023/08/20 02:03:36;;;;;;;30.85;17.15;;;;;;;28.09;55.59;101413.59;6173658;23;20183;-81
2023/08/20 02:06:03;;;;;;;25.05;18.00;;;;;;;27.94;55.71;101382.31;6124126;23;20092;-81
2023/08/20 02:08:29;;;;;;;19.23;17.13;;;;;;;28.02;55.58;101409.28;6155380;23;20519;-81
2023/08/20 02:11:01;;;;;;;19.05;16.23;;;;;;;27.87;55.74;101383.28;6114571;23;20017;-82
2023/08/20 02:13:28;;;;;;;21.48;17.80;;;;;;;28.03;55.98;101411.78;6138131;23;20547;-80
2023/08/20 02:16:03;;;;;;;25.48;17.55;;;;;;;28.03;55.79;101402.75;6116903;23;20020;-80
2023/08/20 02:18:31;;;;;;;20.05;16.73;;;;;;;27.98;55.70;101410.81;6105641;23;20045;-81
2023/08/20 02:20:58;;;;;;;19.02;16.05;;;;;;;27.88;56.02;101395.84;6124985;23;20083;-81
2023/08/20 02:23:30;;;;;;;20.60;18.00;;;;;;;27.82;55.98;101390.47;6133081;23;20044;-81
2023/08/20 02:26:00;;;;;;;22.60;16.67;;;;;;;27.93;56.06;101408.78;6120687;23;20028;-81
2023/08/20 02:28:32;;;;;;;21.35;17.17;;;;;;;27.64;56.04;101359.44;6114848;23;20069;-81
2023/08/20 02:31:05;;;;;;;24.38;15.85;;;;;;;27.95;55.93;101394.91;6135949;23;20024;-82
2023/08/20 02:33:37;;;;;;;23.17;16.95;;;;;;;27.89;55.96;101394.78;6104916;23;20304;-83
2023/08/20 02:36:06;;;;;;;20.63;16.60;;;;;;;27.81;55.72;101378.69;6135981;23;20045;-81
2023/08/20 02:38:33;;;;;;;22.55;16.13;;;;;;;27.90;56.30;101393.72;6108976;23;20257;-82
2023/08/20 02:41:03;;;;;;;30.10;17.90;;;;;;;27.71;56.37;101367.53;6108296;23;20024;-82
2023/08/20 02:43:33;;;;;;;24.02;17.05;;;;;;;27.82;56.20;101402.25;6089948;23;20140;-82
2023/08/20 02:46:02;;;;;;;17.95;16.05;;;;;;;27.77;56.40;101403.94;6133028;23;20028;-82
2023/08/20 02:48:30;;;;;;;24.58;16.65;;;;;;;27.66;56.49;101400.13;6150834;23;20024;-81
2023/08/20 02:51:02;;;;;;;19.27;17.10;;;;;;;27.21;56.67;101326.88;6091211;23;20757;-82
2023/08/20 02:53:30;;;;;;;22.73;16.55;;;;;;;27.40;56.09;101352.22;6127310;23;20456;-80
2023/08/20 02:55:56;;;;;;;19.27;16.25;;;;;;;27.10;56.24;101294.94;6114113;23;20369;-82
2023/08/20 02:58:23;;;;;;;20.83;17.35;;;;;;;27.47;57.08;101378.31;6116239;23;20021;-82
2023/08/20 03:00:50;;;;;;;21.75;17.80;;;;;;;27.67;56.76;101409.94;6144672;23;20103;-80
2023/08/20 03:03:18;;;;;;;20.88;17.33;;;;;;;27.67;57.10;101408.09;6151475;23;20029;-81
2023/08/20 03:05:46;;;;;;;26.13;17.10;;;;;;;27.68;57.02;101415.19;6138400;23;20070;-82
2023/08/20 03:08:13;;;;;;;21.55;16.42;;;;;;;27.41;56.97;101362.09;6134161;23;20057;-81
2023/08/20 03:10:40;;;;;;;22.73;17.58;;;;;;;27.59;56.31;101381.09;6123162;23;20021;-82
2023/08/20 03:13:06;;;;;;;19.67;15.90;;;;;;;27.69;56.51;101399.66;6150715;23;20021;-83
2023/08/20 03:15:33;;;;;;;22.15;17.08;;;;;;;27.74;55.98;101404.41;6126561;23;20017;-81
2023/08/20 03:18:00;;;;;;;25.98;18.38;;;;;;;27.67;56.41;101388.13;6096949;23;20045;-82
2023/08/20 03:20:28;;;;;;;23.30;18.02;;;;;;;27.40;56.02;101342.13;6122952;23;20392;-81
2023/08/20 03:22:55;;;;;;;24.65;18.13;;;;;;;27.75;56.14;101395.19;6138745;23;20340;-80
2023/08/20 03:25:21;;;;;;;29.35;17.80;;;;;;;27.74;56.04;101398.97;6149128;23;20075;-81
2023/08/20 03:27:52;;;;;;;27.30;18.08;;;;;;;27.65;56.20;101384.84;6098811;23;20044;-81
2023/08/20 03:30:18;;;;;;;20.58;17.88;;;;;;;27.79;56.10;101402.66;6138219;23;20021;-81
2023/08/20 03:32:45;;;;;;;20.10;17.27;;;;;;;27.72;56.45;101407.41;6097720;23;20044;-82
2023/08/20 03:35:15;;;;;;;27.05;17.50;;;;;;;27.69;56.49;101386.00;6128331;23;20254;-80
2023/08/20 03:37:42;;;;;;;26.33;17.77;;;;;;;27.55;56.33;101373.63;6110086;23;20350;-81
2023/08/20 03:40:13;;;;;;;23.45;18.08;;;;;;;27.73;56.59;101414.50;6124280;23;20104;-81
2023/08/20 03:42:41;;;;;;;23.27;17.88;;;;;;;27.61;56.99;101399.97;6132613;23;20114;-81
2023/08/20 03:45:09;;;;;;;24.23;18.77;;;;;;;27.32;57.06;101368.91;6125935;23;20351;-81
2023/08/20 03:47:36;;;;;;;22.67;18.85;;;;;;;27.24;56.56;101345.53;6133028;23;20406;-82
2023/08/20 03:50:08;;;;;;;25.50;18.35;;;;;;;27.60;56.72;101406.47;6126199;23;20455;-81
2023/08/20 03:52:36;;;;;;;24.60;20.10;;;;;;;27.57;56.89;101415.97;6118207;23;20028;-80
2023/08/20 03:55:03;;;;;;;26.23;19.75;;;;;;;27.62;56.65;101424.31;6113349;23;20076;-81
2023/08/20 03:57:30;;;;;;;32.92;20.02;;;;;;;27.63;56.62;101425.13;6155756;23;20082;-82
2023/08/20 03:59:56;;;;;;;26.13;19.55;;;;;;;26.92;56.78;101325.75;6105426;23;20017;-81
2023/08/20 04:02:30;;;;;;;30.90;20.92;;;;;;;27.39;57.26;101425.00;6116951;23;20178;-81
2023/08/20 04:04:58;;;;;;;29.33;19.52;;;;;;;27.33;56.96;101414.16;6128725;23;20194;-80
2023/08/20 04:07:25;;;;;;;26.17;20.38;;;;;;;27.28;57.51;101417.56;6135082;23;20017;-81
2023/08/20 04:09:52;;;;;;;32.38;21.05;;;;;;;27.28;57.18;101414.84;6094505;23;20099;-81
2023/08/20 04:12:18;;;;;;;28.77;19.77;;;;;;;27.18;57.05;101390.81;6108699;23;20021;-81
2023/08/20 04:14:47;;;;;;;32.00;20.75;;;;;;;27.17;57.05;101393.78;6122723;23;20136;-82
2023/08/20 04:17:14;;;;;;;27.83;19.73;;;;;;;27.28;57.21;101412.13;6162666;23;20044;-82
2023/08/20 04:19:41;;;;;;;28.25;21.02;;;;;;;27.00;57.38;101388.13;6090186;23;20025;-82
2023/08/20 04:22:07;;;;;;;37.97;21.17;;;;;;;27.07;57.97;101421.56;6096084;23;20039;-80
2023/08/20 04:24:34;;;;;;;30.23;20.35;;;;;;;26.96;58.26;101417.69;6138577;23;20044;-81
2023/08/20 04:27:01;;;;;;;23.95;20.65;;;;;;;26.99;58.37;101414.53;6131291;23;20221;-81
2023/08/20 04:29:28;;;;;;;27.90;19.50;;;;;;;27.08;57.78;101420.50;6146799;23;20021;-80
2023/08/20 04:31:55;;;;;;;28.40;20.65;;;;;;;27.10;58.09;101428.47;6119499;23;20688;-81
2023/08/20 04:34:21;;;;;;;31.45;20.83;;;;;;;26.82;58.46;101408.84;6099030;23;20283;-81
2023/08/20 04:36:48;;;;;;;30.55;20.95;;;;;;;26.63;58.70;101383.47;6118791;23;20386;-83
2023/08/20 04:39:15;;;;;;;30.20;20.88;;;;;;;26.76;58.52;101403.44;6155012;23;20106;-81
2023/08/20 04:41:42;;;;;;;32.03;20.65;;;;;;;26.77;58.80;101416.00;6128617;23;20100;-80
2023/08/20 04:44:09;;;;;;;27.73;20.88;;;;;;;26.86;58.82;101425.56;6118088;23;20021;-82
2023/08/20 04:46:36;;;;;;;29.75;20.40;;;;;;;26.93;58.45;101426.31;6131036;23;20649;-81
2023/08/20 04:49:14;;;;;;;30.27;20.08;;;;;;;26.87;59.16;101427.25;6101406;23;20020;-81
2023/08/20 04:51:41;;;;;;;31.45;21.23;;;;;;;26.80;59.19;101424.56;6155518;23;20052;-82
2023/08/20 04:54:08;;;;;;;23.95;20.35;;;;;;;26.79;59.67;101432.94;6130681;23;20465;-81
2023/08/20 04:56:35;;;;;;;26.30;20.05;;;;;;;26.53;59.49;101384.97;6156416;23;20448;-81
2023/08/20 04:59:07;;;;;;;33.03;21.92;;;;;;;26.79;59.48;101432.94;6104092;23;20338;-82
2023/08/20 05:01:34;;;;;;;26.70;20.42;;;;;;;26.66;59.48;101403.97;6135045;23;20063;-81
2023/08/20 05:04:01;;;;;;;30.40;21.17;;;;;;;26.87;59.49;101438.13;6088785;23;20805;-82
2023/08/20 05:06:28;;;;;;;27.08;20.02;;;;;;;26.94;58.98;101430.69;6131290;23;20021;-80
2023/08/20 05:08:55;;;;;;;27.67;20.75;;;;;;;26.69;59.26;101398.06;6119849;23;20507;-82
2023/08/20 05:11:22;;;;;;;32.03;22.20;;;;;;;26.77;58.88;101399.66;6128384;23;20350;-81
2023/08/20 05:13:49;;;;;;;32.63;21.60;;;;;;;26.91;59.76;101422.97;6119917;23;20458;-81
2023/08/20 05:16:16;;;;;;;29.65;20.58;;;;;;;26.84;60.17;101423.03;6130226;23;20025;-82
2023/08/20 05:18:43;;;;;;;28.27;20.73;;;;;;;26.97;59.90;101446.63;6131786;23;20079;-82
2023/08/20 05:21:13;;;;;;;26.98;20.73;;;;;;;26.98;59.91;101451.00;6119087;23;20397;-80
2023/08/20 05:23:45;;;;;;;25.98;20.27;;;;;;;26.74;59.47;101413.72;6103452;23;20208;-81
2023/08/20 05:26:12;;;;;;;28.55;21.35;;;;;;;26.89;59.79;101430.53;6123112;23;20239;-80
2023/08/20 05:28:38;;;;;;;25.63;20.30;;;;;;;27.04;60.02;101444.66;6120044;23;20016;-82
2023/08/20 05:31:05;;;;;;;33.45;20.58;;;;;;;27.06;60.16;101458.91;6098096;23;20623;-82
2023/08/20 05:33:32;;;;;;;29.65;21.42;;;;;;;26.99;60.06;101452.69;6116215;23;20454;-82
2023/08/20 05:36:00;;;;;;;33.03;21.35;;;;;;;26.93;59.65;101442.66;6130761;23;20032;-80
2023/08/20 05:38:27;;;;;;;28.25;20.98;;;;;;;27.04;59.56;101450.13;6093145;23;20452;-81
2023/08/20 05:40:53;;;;;;;25.88;22.48;;;;;;;26.96;59.20;101431.31;6104419;23;20116;-82
2023/08/20 05:43:20;;;;;;;28.13;20.90;;;;;;;27.26;59.48;101469.63;6131046;23;20049;-81
2023/08/20 05:45:48;;;;;;;26.45;18.48;;;;;;;27.40;57.47;101480.34;6146137;23;20393;-81
2023/08/20 05:48:20;;;;;;;24.50;16.95;;;;;;;27.48;56.26;101477.34;6134806;23;20051;-82
2023/08/20 05:50:47;;;;;;;28.92;16.85;;;;;;;27.41;56.31;101471.13;6093400;23;20021;-82
2023/08/20 05:53:14;;;;;;;26.20;17.85;;;;;;;27.51;55.94;101487.78;6119235;23;20028;-80
2023/08/20 05:55:41;;;;;;;22.25;17.58;;;;;;;27.19;55.95;101421.69;6093834;23;20096;-83
2023/08/20 05:58:08;;;;;;;22.30;16.92;;;;;;;27.46;55.08;101453.03;6104952;23;20104;-81
2023/08/20 06:00:37;;;;;;;23.95;16.85;;;;;;;27.15;55.22;101414.97;6141492;23;20017;-80
2023/08/20 06:03:09;;;;;;;23.35;17.83;;;;;;;27.31;55.38;101444.41;6120985;23;20338;-81
2023/08/20 06:05:36;;;;;;;23.25;16.98;;;;;;;27.68;55.02;101490.72;6132375;23;20454;-82
2023/08/20 06:08:03;;;;;;;26.92;17.20;;;;;;;27.75;54.67;101488.75;6144797;23;20093;-80
2023/08/20 06:10:30;;;;;;;24.15;17.27;;;;;;;27.53;54.72;101452.13;6120821;23;20021;-80
2023/08/20 06:12:57;;;;;;;24.38;16.85;;;;;;;27.73;54.85;101492.78;6119345;23;20502;-81
2023/08/20 06:15:24;;;;;;;24.48;16.73;;;;;;;27.58;54.69;101458.53;6095370;23;20025;-79
2023/08/20 06:17:50;;;;;;;21.33;15.80;;;;;;;27.47;54.68;101438.31;6123719;23;20017;-80
2023/08/20 06:20:18;;;;;;;18.63;15.73;;;;;;;27.64;54.39;101460.34;6107377;23;20532;-81
2023/08/20 06:22:49;;;;;;;28.50;17.23;;;;;;;27.54;54.50;101438.25;6128029;23;20064;-82
2023/08/20 06:25:19;;;;;;;31.40;16.90;;;;;;;27.90;54.76;101497.41;6117438;23;20222;-81
2023/08/20 06:27:46;;;;;;;23.25;16.92;;;;;;;27.83;54.06;101463.91;6120430;23;20018;-80
2023/08/20 06:30:13;;;;;;;21.20;16.35;;;;;;;27.86;53.51;101462.63;6133182;23;20267;-81
2023/08/20 06:32:40;;;;;;;23.15;16.05;;;;;;;28.12;53.14;101499.63;6093806;23;20828;-82
2023/08/20 06:35:09;;;;;;;19.35;16.08;;;;;;;28.23;53.03;101506.19;6082049;23;20434;-80
2023/08/20 06:37:36;;;;;;;24.42;16.58;;;;;;;28.28;52.30;101488.06;6130082;23;20041;-81
2023/08/20 06:40:03;;;;;;;18.10;16.17;;;;;;;28.47;52.27;101512.59;6110817;23;20348;-81
2023/08/20 06:42:30;;;;;;;21.77;15.50;;;;;;;28.38;52.33;101492.13;6116364;23;20092;-80
2023/08/20 06:44:57;;;;;;;18.45;14.60;;;;;;;28.58;51.66;101492.66;6092640;23;20316;-82
2023/08/20 06:47:27;;;;;;;28.13;16.48;;;;;;;28.61;51.94;101497.66;6119776;23;20084;-82
2023/08/20 06:49:55;;;;;;;21.08;15.85;;;;;;;28.59;51.31;101477.94;6126069;23;20022;-81
2023/08/20 06:52:22;;;;;;;21.77;15.73;;;;;;;28.71;52.13;101505.25;6104484;23;20018;-78
2023/08/20 06:54:49;;;;;;;19.90;15.65;;;;;;;28.33;51.69;101435.47;6095751;23;20080;-80
2023/08/20 06:57:17;;;;;;;22.08;15.05;;;;;;;28.79;51.19;101506.81;6115085;23;20060;-80
2023/08/20 06:59:44;;;;;;;26.20;16.33;;;;;;;28.88;50.92;101508.97;6110818;23;20095;-80
2023/08/20 07:02:11;;;;;;;16.27;14.57;;;;;;;28.80;50.76;101483.91;6132676;23;20017;-80
2023/08/20 07:04:37;;;;;;;19.50;15.35;;;;;;;28.76;50.80;101478.06;6132215;23;20193;-80
2023/08/20 07:07:04;;;;;;;18.70;16.23;;;;;;;28.50;51.03;101420.09;6139494;23;20014;-81
2023/08/20 07:09:31;;;;;;;24.17;15.90;;;;;;;28.81;51.16;101485.56;6096060;23;20417;-80
2023/08/20 07:11:58;;;;;;;24.92;15.93;;;;;;;29.01;51.38;101512.53;6090221;23;20017;-79
2023/08/20 07:14:25;;;;;;;18.02;14.98;;;;;;;29.02;51.18;101514.22;6117576;23;20269;-81
2023/08/20 07:16:52;;;;;;;24.75;16.75;;;;;;;28.81;51.17;101466.44;6082254;23;20464;-80
2023/08/20 07:19:21;;;;;;;28.10;15.38;;;;;;;29.23;50.53;101510.09;6091667;23;20056;-81
2023/08/20 07:21:52;;;;;;;21.05;15.82;;;;;;;29.26;50.33;101510.44;6091049;23;20025;-81
2023/08/20 07:24:25;;;;;;;23.10;14.80;;;;;;;29.16;50.59;101491.88;6090422;23;20021;-81
2023/08/20 07:26:52;;;;;;;24.02;16.80;;;;;;;29.39;50.21;101509.34;6069272;23;20447;-81
2023/08/20 07:29:25;;;;;;;21.50;15.48;;;;;;;29.41;49.88;101520.88;6091864;23;20323;-81
2023/08/20 07:31:52;;;;;;;20.35;15.25;;;;;;;29.28;49.94;101491.88;6108842;23;20125;-81
2023/08/20 07:34:19;;;;;;;19.83;14.95;;;;;;;29.42;50.20;101519.81;6118603;23;20091;-81
2023/08/20 07:36:51;;;;;;;23.52;15.80;;;;;;;29.45;50.11;101518.50;6082638;23;20024;-81
2023/08/20 07:39:19;;;;;;;21.75;16.05;;;;;;;29.41;50.35;101504.47;6100864;23;20413;-81
2023/08/20 07:41:46;;;;;;;18.27;15.45;;;;;;;29.42;49.91;101502.56;6097221;23;20209;-81
2023/08/20 07:44:15;;;;;;;26.20;18.27;;;;;;;29.70;50.03;101526.44;6111776;23;20370;-81
2023/08/20 07:46:42;;;;;;;20.63;17.48;;;;;;;29.69;49.83;101520.16;6108464;23;20024;-82
2023/08/20 07:49:09;;;;;;;24.17;17.55;;;;;;;29.40;50.07;101467.25;6087610;23;20017;-81
2023/08/20 07:51:36;;;;;;;21.30;16.90;;;;;;;29.75;50.40;101532.03;6120796;23;20025;-81
2023/08/20 07:54:03;;;;;;;21.42;17.52;;;;;;;29.60;50.78;101502.41;6110024;23;20454;-81
2023/08/20 07:56:29;;;;;;;24.67;17.58;;;;;;;29.64;51.22;101525.47;6086211;23;20018;-81
2023/08/20 07:58:56;;;;;;;20.65;18.48;;;;;;;29.66;51.15;101533.44;6058820;23;20153;-81
2023/08/20 08:01:23;;;;;;;25.40;18.60;;;;;;;29.74;50.98;101544.06;6118162;23;20022;-81
2023/08/20 08:03:53;;;;;;;26.70;18.88;;;;;;;29.77;51.29;101511.53;6122763;23;20036;-80
2023/08/20 08:06:22;;;;;;;23.27;18.55;;;;;;;29.83;51.78;101545.31;6126765;23;20092;-82
2023/08/20 08:08:49;;;;;;;24.33;19.23;;;;;;;29.90;51.55;101542.44;6136433;23;20320;-81
2023/08/20 08:11:16;;;;;;;22.17;18.15;;;;;;;29.76;52.05;101509.91;6121784;23;20452;-80
2023/08/20 08:13:43;;;;;;;29.45;18.58;;;;;;;29.66;51.70;101497.88;6124973;23;20028;-80
2023/08/20 08:16:10;;;;;;;23.05;19.33;;;;;;;29.88;52.27;101531.75;6160632;23;20017;-80
2023/08/20 08:18:37;;;;;;;26.77;19.55;;;;;;;29.96;52.14;101534.09;6109702;23;20029;-81
2023/08/20 08:21:10;;;;;;;22.33;18.60;;;;;;;29.96;52.47;101525.88;6121383;23;20017;-80
2023/08/20 08:23:37;;;;;;;26.40;19.65;;;;;;;30.05;52.48;101537.25;6123484;23;20079;-80
2023/08/20 08:26:04;;;;;;;24.25;18.85;;;;;;;30.02;52.75;101535.84;6135641;23;20017;-79
2023/08/20 08:28:31;;;;;;;28.20;19.90;;;;;;;30.04;52.91;101521.94;6122618;23;20075;-80
2023/08/20 08:30:58;;;;;;;20.70;18.17;;;;;;;29.91;52.41;101490.22;6100436;23;20024;-80
2023/08/20 08:33:24;;;;;;;22.23;19.20;;;;;;;30.28;52.41;101533.63;6100210;23;20365;-80
2023/08/20 08:35:51;;;;;;;22.38;18.55;;;;;;;29.86;52.15;101461.88;6092836;23;20413;-80
2023/08/20 08:38:18;;;;;;;25.60;19.05;;;;;;;30.04;52.16;101483.59;6151854;23;20013;-80
2023/08/20 08:40:45;;;;;;;23.42;19.13;;;;;;;30.22;52.07;101507.19;6120080;23;20021;-81
2023/08/20 08:43:16;;;;;;;22.67;19.08;;;;;;;30.08;51.35;101462.06;6144867;23;20025;-80
2023/08/20 08:45:48;;;;;;;;;;;;;;;30.09;51.63;101466.44;6116146;23;20116;-81
2023/08/20 08:48:16;;;;;;;25.00;19.08;;;;;;;30.66;51.52;101535.69;6118280;23;19927;-80
2023/08/20 08:50:43;;;;;;;26.48;20.70;;;;;;;30.75;50.84;101521.56;6133442;23;20021;-81
2023/08/20 08:53:10;;;;;;;26.17;18.67;;;;;;;30.30;50.59;101446.59;6133272;23;20028;-79
2023/08/20 08:55:37;;;;;;;22.33;19.25;;;;;;;30.88;51.01;101533.06;6127858;23;20021;-81
2023/08/20 08:58:08;;;;;;;24.08;19.90;;;;;;;30.79;50.76;101522.75;6135133;23;20021;-80
2023/08/20 09:00:35;;;;;;;27.58;19.90;;;;;;;31.03;50.38;101534.41;6146748;23;20106;-80
2023/08/20 09:03:02;;;;;;;27.58;20.35;;;;;;;31.15;50.31;101535.13;6120321;23;20239;-80
2023/08/20 09:05:31;;;;;;;28.30;21.05;;;;;;;31.20;50.54;101526.97;6137108;23;20028;-80
2023/08/20 09:07:58;;;;;;;25.55;20.65;;;;;;;31.00;50.33;101480.91;6121725;23;20021;-80
2023/08/20 09:10:31;;;;;;;30.48;21.65;;;;;;;31.12;49.53;101478.03;6138329;23;20104;-80
2023/08/20 09:12:58;;;;;;;24.48;19.33;;;;;;;31.42;49.40;101526.22;6131260;23;20082;-80
2023/08/20 09:15:33;;;;;;;27.13;21.10;;;;;;;31.46;48.50;101527.38;6158722;23;20046;-81
2023/08/20 09:18:03;;;;;;;23.00;19.65;;;;;;;31.45;49.31;101532.00;6126289;23;20079;-81
2023/08/20 09:20:36;;;;;;;27.95;19.83;;;;;;;31.51;48.41;101531.00;6085886;23;20542;-80
2023/08/20 09:23:10;;;;;;;26.75;19.25;;;;;;;31.50;48.60;101512.03;6145705;23;20341;-79
2023/08/20 09:25:37;;;;;;;22.55;19.65;;;;;;;31.58;48.74;101508.88;6153423;23;20206;-80
2023/08/20 09:28:04;;;;;;;34.90;22.25;;;;;;;31.72;48.65;101504.63;6104845;23;20351;-80
2023/08/20 09:30:31;;;;;;;27.85;20.67;;;;;;;31.91;48.41;101505.13;6124685;23;20472;-80
2023/08/20 09:33:13;;;;;;;24.10;19.45;;;;;;;32.08;47.87;101507.81;6136793;23;20103;-81
2023/08/20 09:35:50;;;;;;;29.35;21.63;;;;;;;31.71;47.55;101417.91;6096828;23;20463;-80
2023/08/20 09:38:21;;;;;;;25.17;19.55;;;;;;;32.41;46.93;101514.19;6130602;23;20068;-80
2023/08/20 09:40:56;;;;;;;25.20;19.15;;;;;;;32.51;47.01;101500.56;6148721;23;20021;-80
2023/08/20 09:43:29;;;;;;;26.08;20.10;;;;;;;32.43;46.84;101465.31;6107429;23;20025;-81
2023/08/20 09:45:57;;;;;;;24.08;18.30;;;;;;;32.67;46.14;101467.69;6116733;23;20369;-81
2023/08/20 09:48:28;;;;;;;22.52;18.77;;;;;;;32.88;45.23;101472.25;6133195;23;20021;-79
2023/08/20 09:50:58;;;;;;;;;;;;;;;33.15;45.13;101498.84;6118701;23;20401;-81
2023/08/20 09:53:46;;;;;;;27.00;20.10;;;;;;;33.23;44.15;101489.25;6116730;23;19994;-80
2023/08/20 09:56:31;;;;;;;27.25;19.75;;;;;;;33.13;43.82;101438.56;6149353;23;20108;-80
2023/08/20 09:59:02;;;;;;;22.13;19.25;;;;;;;33.31;44.92;101459.31;6127218;23;20021;-80
2023/08/20 10:01:30;;;;;;;22.35;19.02;;;;;;;33.61;44.89;101485.34;6079888;23;20430;-80
2023/08/20 10:03:58;;;;;;;21.40;18.98;;;;;;;33.73;44.17;101482.34;6100394;23;20025;-79
2023/08/20 10:06:25;;;;;;;26.50;17.92;;;;;;;33.52;43.63;101412.59;6125050;23;20021;-78
2023/08/20 10:08:53;;;;;;;23.75;19.15;;;;;;;33.81;42.60;101435.00;6126525;23;20068;-79
2023/08/20 10:11:20;;;;;;;24.33;18.20;;;;;;;34.25;41.56;101484.97;6160339;23;20425;-81
2023/08/20 10:13:47;;;;;;;20.90;18.70;;;;;;;34.18;41.64;101476.13;6106152;23;20030;-81
2023/08/20 10:16:23;;;;;;;20.80;17.70;;;;;;;34.22;41.37;101463.44;6090885;23;20017;-80
2023/08/20 10:18:51;;;;;;;26.30;18.65;;;;;;;34.42;40.04;101468.16;6082749;23;20048;-81
2023/08/20 10:21:17;;;;;;;24.90;18.25;;;;;;;34.53;39.63;101455.19;6149877;23;20481;-81
2023/08/20 10:23:49;;;;;;;22.63;18.77;;;;;;;34.71;39.85;101466.78;6114962;23;20017;-81
2023/08/20 10:26:21;;;;;;;23.83;18.70;;;;;;;34.74;40.80;101457.97;6109904;23;20025;-81
2023/08/20 10:28:51;;;;;;;22.88;19.10;;;;;;;34.85;40.11;101476.94;6115308;23;20096;-81
2023/08/20 10:31:20;;;;;;;20.38;17.50;;;;;;;35.03;39.25;101472.78;6121156;23;20318;-80
2023/08/20 10:33:54;;;;;;;20.50;18.30;;;;;;;34.78;39.70;101414.91;6109201;23;20052;-80
2023/08/20 10:36:26;;;;;;;22.80;18.45;;;;;;;35.24;39.57;101468.03;6109120;23;20725;-80
2023/08/20 10:38:56;;;;;;;22.48;18.83;;;;;;;35.35;39.23;101457.81;6134267;23;20014;-79
2023/08/20 10:41:33;;;;;;;20.45;17.40;;;;;;;35.47;38.98;101454.72;6144556;23;20393;-81
2023/08/20 10:44:02;;;;;;;23.35;19.05;;;;;;;35.51;38.25;101437.31;6133041;23;20019;-79
2023/08/20 10:46:34;;;;;;;23.85;17.92;;;;;;;35.81;37.20;101459.53;6117937;23;20362;-80
2023/08/20 10:49:06;;;;;;;20.40;15.57;;;;;;;35.73;36.70;101425.03;6086455;23;20480;-80
2023/08/20 10:51:35;;;;;;;21.17;16.58;;;;;;;35.65;36.55;101400.81;6105280;23;20041;-80
2023/08/20 10:54:03;;;;;;;19.35;16.65;;;;;;;36.06;36.44;101464.88;6148393;23;20356;-83
2023/08/20 10:56:47;;;;;;;21.08;16.70;;;;;;;36.26;35.89;101455.63;6102158;23;20389;-79
2023/08/20 10:59:27;;;;;;;24.63;16.58;;;;;;;36.46;36.49;101467.63;6138040;23;20349;-80
2023/08/20 11:01:58;;;;;;;18.02;16.08;;;;;;;36.40;35.68;101449.44;6117165;23;20606;-81
2023/08/20 11:04:32;;;;;;;19.73;17.63;;;;;;;36.63;35.92;101454.25;6114159;23;20028;-81
2023/08/20 11:07:01;;;;;;;26.55;18.17;;;;;;;36.62;36.13;101441.53;6136723;23;20028;-81
2023/08/20 11:09:30;;;;;;;27.02;17.40;;;;;;;36.92;36.27;101450.59;6115413;23;20079;-82
2023/08/20 11:11:57;;;;;;;18.95;16.95;;;;;;;36.99;35.00;101445.53;6135558;23;20384;-81
2023/08/20 11:14:25;;;;;;;17.83;15.93;;;;;;;36.79;34.65;101374.69;6123343;23;20092;-82
2023/08/20 11:16:52;;;;;;;17.95;16.25;;;;;;;36.94;34.72;101399.38;6130346;23;20021;-81